Terminal Aerodrome Forecast
Issued by NWS Mt. Holly, NJ

Home | Current Version | Previous Version | Text Only | Print | Product List | Glossary On
Versions: 1 2 3 4 5 6 7 8 9 10 11 12 13 14 15 16 17 18 19 20 21 22 23
000
FTUS41 KPHI 191120
TAFTTN
TAF
KTTN 191120Z 1912/2012 26015G31KT P6SM SCT015 BKN050
     FM191300 27015G31KT P6SM SCT020 BKN070
     FM191400 28020G40KT P6SM SCT030
     FM191700 29016G32KT P6SM SKC
     FM192100 29011G22KT P6SM SKC
     FM200600 28010KT P6SM SKC=

USA.gov is the U.S. government's official web portal to all federal, state and local government web resources and services.